Time,TemperatureF,DewpointF,PressureIn,WindDirection,WindDirectionDegrees,WindSpeedMPH,WindSpeedGustMPH,Humidity,HourlyPrecipIn,Conditions,Clouds,dailyrainin,SoftwareType,DateUTC
2013-04-12 00:01:00,75.0,75.0,29.68,NW,307,1.0,8.0,99,0.00,,,0.11,,2013-04-11 14:01:00,
2013-04-12 00:12:00,75.0,75.0,29.68,NW,307,1.0,8.0,99,0.00,,,0.11,,2013-04-11 14:12:00,
2013-04-12 00:22:00,75.0,75.0,29.69,NW,305,2.0,8.0,99,0.00,,,0.11,,2013-04-11 14:22:00,
2013-04-12 00:32:00,75.0,75.0,29.69,NW,305,2.0,8.0,99,0.00,,,0.11,,2013-04-11 14:32:00,
2013-04-12 00:40:00,74.0,74.0,29.67,NW,305,3.0,8.0,99,0.00,,,0.11,,2013-04-11 14:40:00,
2013-04-12 00:42:00,75.0,75.0,29.69,NW,305,2.0,8.0,99,0.00,,,0.11,,2013-04-11 14:42:00,
2013-04-12 00:52:00,74.0,74.0,29.66,NNW,328,2.0,11.0,99,0.00,,,0.11,,2013-04-11 14:52:00,
2013-04-12 01:02:00,74.0,74.0,29.67,NW,305,3.0,8.0,99,0.00,,,0.11,,2013-04-11 15:02:00,
2013-04-12 01:12:00,74.0,74.0,29.67,NW,305,3.0,8.0,99,0.00,,,0.11,,2013-04-11 15:12:00,
2013-04-12 01:21:00,74.0,74.0,29.67,NW,305,3.0,8.0,99,0.00,,,0.11,,2013-04-11 15:21:00,
2013-04-12 01:32:00,74.0,74.0,29.67,NW,305,3.0,8.0,99,0.00,,,0.11,,2013-04-11 15:32:00,
2013-04-12 01:53:00,75.0,75.0,29.66,NNW,336,2.0,5.0,99,0.00,,,0.11,,2013-04-11 15:53:00,
2013-04-12 02:02:00,75.0,75.0,29.66,NNW,336,2.0,5.0,99,0.00,,,0.11,,2013-04-11 16:02:00,
2013-04-12 02:12:00,75.0,75.0,29.66,NNW,336,2.0,5.0,99,0.00,,,0.11,,2013-04-11 16:12:00,
2013-04-12 02:22:00,75.0,75.0,29.65,NW,312,2.0,8.0,99,0.00,,,0.11,,2013-04-11 16:22:00,
2013-04-12 02:32:00,75.0,75.0,29.65,NW,319,1.0,6.0,99,0.00,,,0.11,,2013-04-11 16:32:00,
2013-04-12 02:42:00,75.0,75.0,29.65,NW,319,1.0,6.0,99,0.00,,,0.11,,2013-04-11 16:42:00,
2013-04-12 02:52:00,75.0,75.0,29.65,NW,311,1.0,5.0,99,0.00,,,0.11,,2013-04-11 16:52:00,
2013-04-12 03:01:00,75.0,75.0,29.65,NW,311,1.0,5.0,99,0.00,,,0.11,,2013-04-11 17:01:00,
2013-04-12 03:12:00,75.0,75.0,29.65,NW,311,1.0,5.0,99,0.00,,,0.11,,2013-04-11 17:12:00,
2013-04-12 03:22:00,75.0,75.0,29.64,NW,310,1.0,5.0,99,0.00,,,0.11,,2013-04-11 17:22:00,
2013-04-12 03:33:00,75.0,75.0,29.64,NW,310,1.0,5.0,99,0.00,,,0.11,,2013-04-11 17:33:00,
2013-04-12 03:43:00,75.0,75.0,29.64,NW,310,1.0,5.0,99,0.00,,,0.11,,2013-04-11 17:43:00,
2013-04-12 03:52:00,75.0,75.0,29.64,NW,305,2.0,11.0,99,0.00,,,0.11,,2013-04-11 17:52:00,
2013-04-12 04:02:00,75.0,75.0,29.64,NW,305,2.0,11.0,99,0.00,,,0.11,,2013-04-11 18:02:00,
2013-04-12 04:13:00,75.0,75.0,29.64,NW,305,2.0,11.0,99,0.00,,,0.11,,2013-04-11 18:13:00,
2013-04-12 04:22:00,75.0,75.0,29.63,NW,324,2.0,8.0,99,0.00,,,0.11,,2013-04-11 18:22:00,
2013-04-12 04:32:00,75.0,75.0,29.63,NW,324,2.0,8.0,99,0.00,,,0.11,,2013-04-11 18:32:00,
2013-04-12 04:43:00,75.0,75.0,29.63,NW,324,2.0,8.0,99,0.00,,,0.11,,2013-04-11 18:43:00,
2013-04-12 04:53:00,75.0,75.0,29.62,NW,308,2.0,7.0,99,0.00,,,0.11,,2013-04-11 18:53:00,
2013-04-12 05:02:00,75.0,75.0,29.62,NW,308,2.0,7.0,99,0.00,,,0.11,,2013-04-11 19:02:00,
2013-04-12 05:13:00,75.0,75.0,29.62,NW,308,2.0,7.0,99,0.00,,,0.11,,2013-04-11 19:13:00,
2013-04-12 05:22:00,75.0,75.0,29.62,NW,308,2.0,7.0,99,0.00,,,0.11,,2013-04-11 19:22:00,
2013-04-12 05:32:00,75.0,75.0,29.62,NW,325,0.0,9.0,99,0.00,,,0.11,,2013-04-11 19:32:00,
2013-04-12 05:43:00,75.0,75.0,29.62,NW,325,0.0,9.0,99,0.00,,,0.11,,2013-04-11 19:43:00,
2013-04-12 05:53:00,75.0,75.0,29.62,NW,312,2.0,8.0,99,0.00,,,0.09,,2013-04-11 19:53:00,
2013-04-12 06:02:00,75.0,75.0,29.62,NNW,327,1.0,5.0,99,0.00,,,0.09,,2013-04-11 20:02:00,
2013-04-12 06:12:00,75.0,75.0,29.62,NNW,327,1.0,5.0,99,0.00,,,0.09,,2013-04-11 20:12:00,
2013-04-12 06:21:00,76.0,76.0,29.64,NW,324,2.0,9.0,99,0.00,,,0.09,,2013-04-11 20:21:00,
2013-04-12 06:32:00,76.0,76.0,29.64,NW,309,2.0,7.0,99,0.00,,,0.09,,2013-04-11 20:32:00,
2013-04-12 06:42:00,76.0,76.0,29.64,NW,309,2.0,7.0,99,0.00,,,0.09,,2013-04-11 20:42:00,
2013-04-12 06:52:00,76.0,76.0,29.65,NW,316,1.0,5.0,99,0.00,,,0.09,,2013-04-11 20:52:00,
2013-04-12 07:01:00,76.0,76.0,29.66,NW,312,2.0,4.0,99,0.00,,,0.09,,2013-04-11 21:01:00,
2013-04-12 07:11:00,76.0,76.0,29.66,NW,312,2.0,4.0,99,0.00,,,0.09,,2013-04-11 21:11:00,
2013-04-12 07:22:00,75.0,75.0,29.66,NW,317,2.0,7.0,99,0.00,,,0.09,,2013-04-11 21:22:00,
2013-04-12 07:32:00,75.0,75.0,29.66,NW,317,2.0,7.0,99,0.00,,,0.09,,2013-04-11 21:32:00,
2013-04-12 07:42:00,75.0,75.0,29.66,NW,317,2.0,7.0,99,0.00,,,0.09,,2013-04-11 21:42:00,
2013-04-12 07:53:00,75.0,75.0,29.67,NW,312,0.0,4.0,99,0.00,,,0.09,,2013-04-11 21:53:00,
2013-04-12 08:02:00,76.0,76.0,29.69,NW,319,0.0,4.0,99,0.00,,,0.09,,2013-04-11 22:02:00,
2013-04-12 08:13:00,76.0,76.0,29.69,NW,319,0.0,4.0,99,0.00,,,0.09,,2013-04-11 22:13:00,
2013-04-12 08:22:00,76.0,76.0,29.69,NW,320,0.0,3.0,99,0.00,,,0.09,,2013-04-11 22:22:00,
2013-04-12 08:32:00,75.0,75.0,29.69,NW,319,1.0,4.0,99,0.00,,,0.09,,2013-04-11 22:32:00,
2013-04-12 08:43:00,75.0,75.0,29.69,NW,319,1.0,4.0,99,0.00,,,0.09,,2013-04-11 22:43:00,
2013-04-12 08:52:00,82.0,82.0,29.69,NW,308,2.0,6.0,99,0.00,,,0.09,,2013-04-11 22:52:00,
2013-04-12 09:03:00,76.0,76.0,29.70,NW,316,2.0,6.0,99,0.00,,,0.09,,2013-04-11 23:03:00,
2013-04-12 09:12:00,76.0,76.0,29.70,NW,316,2.0,6.0,99,0.00,,,0.09,,2013-04-11 23:12:00,
2013-04-12 09:22:00,77.0,77.0,29.70,NW,316,2.0,7.0,99,0.00,,,0.09,,2013-04-11 23:22:00,
2013-04-12 09:32:00,77.0,77.0,29.69,NW,316,2.0,8.0,99,0.00,,,0.09,,2013-04-11 23:32:00,
2013-04-12 09:42:00,77.0,77.0,29.69,NW,316,2.0,8.0,99,0.00,,,0.09,,2013-04-11 23:42:00,
2013-04-12 09:53:00,78.0,78.0,29.71,NW,313,1.0,4.0,99,0.00,,,0.08,,2013-04-11 23:53:00,
2013-04-12 10:02:00,78.0,78.0,29.71,NW,313,1.0,4.0,99,0.00,,,0.08,,2013-04-12 00:02:00,
2013-04-12 10:11:00,78.0,78.0,29.71,NW,313,1.0,4.0,99,0.00,,,0.08,,2013-04-12 00:11:00,
2013-04-12 10:20:00,77.0,77.0,29.70,NW,315,3.0,5.0,99,0.00,,,0.07,,2013-04-12 00:20:00,
2013-04-12 10:21:00,77.0,77.0,29.70,NW,306,0.0,7.0,99,0.00,,,0.07,,2013-04-12 00:21:00,
2013-04-12 10:32:00,77.0,77.0,29.70,NW,306,2.0,5.0,99,0.00,,,0.07,,2013-04-12 00:32:00,
2013-04-12 10:43:00,77.0,77.0,29.70,NW,306,2.0,5.0,99,0.00,,,0.07,,2013-04-12 00:43:00,
2013-04-12 10:52:00,77.0,77.0,29.70,NW,315,3.0,5.0,99,0.00,,,0.07,,2013-04-12 00:52:00,
2013-04-12 11:02:00,77.0,77.0,29.70,NW,315,3.0,5.0,99,0.00,,,0.07,,2013-04-12 01:02:00,
2013-04-12 11:12:00,77.0,77.0,29.70,NW,315,3.0,5.0,99,0.00,,,0.07,,2013-04-12 01:12:00,
2013-04-12 11:52:00,82.0,82.0,29.67,NW,315,4.0,11.0,99,0.00,,,0.06,,2013-04-12 01:52:00,
2013-04-12 12:02:00,83.0,83.0,29.67,NW,322,1.0,9.0,99,0.00,,,0.06,,2013-04-12 02:02:00,
2013-04-12 12:12:00,83.0,83.0,29.67,NW,322,1.0,9.0,99,0.00,,,0.06,,2013-04-12 02:12:00,
2013-04-12 12:22:00,85.0,85.0,29.66,NW,307,2.0,8.0,99,0.00,,,0.06,,2013-04-12 02:22:00,
2013-04-12 12:32:00,85.0,85.0,29.65,NNW,336,3.0,7.0,99,0.00,,,0.06,,2013-04-12 02:32:00,
2013-04-12 12:42:00,85.0,85.0,29.65,NNW,336,3.0,7.0,99,0.00,,,0.06,,2013-04-12 02:42:00,
2013-04-12 12:52:00,85.0,85.0,29.65,NNW,332,2.0,8.0,99,0.00,,,0.06,,2013-04-12 02:52:00,
2013-04-12 13:01:00,85.0,85.0,29.65,NNW,332,2.0,8.0,99,0.00,,,0.06,,2013-04-12 03:01:00,
2013-04-12 13:11:00,85.0,85.0,29.65,NNW,332,2.0,8.0,99,0.00,,,0.06,,2013-04-12 03:11:00,
2013-04-12 13:22:00,87.0,87.0,29.65,NW,316,3.0,10.0,99,0.00,,,0.06,,2013-04-12 03:22:00,
2013-04-12 13:32:00,86.0,86.0,29.64,NW,316,3.0,8.0,99,0.00,,,0.06,,2013-04-12 03:32:00,
2013-04-12 13:43:00,86.0,86.0,29.64,NW,316,3.0,8.0,99,0.00,,,0.06,,2013-04-12 03:43:00,
2013-04-12 13:53:00,85.0,85.0,29.63,NW,316,2.0,7.0,99,0.00,,,0.06,,2013-04-12 03:53:00,
2013-04-12 14:02:00,86.0,86.0,29.63,NW,313,2.0,8.0,99,0.00,,,0.05,,2013-04-12 04:02:00,
2013-04-12 14:12:00,86.0,86.0,29.63,NW,313,2.0,8.0,99,0.00,,,0.05,,2013-04-12 04:12:00,
2013-04-12 14:22:00,86.0,86.0,29.63,NNW,329,2.0,8.0,99,0.00,,,0.02,,2013-04-12 04:22:00,
2013-04-12 14:33:00,86.0,86.0,29.63,NNW,327,2.0,8.0,99,0.00,,,0.01,,2013-04-12 04:33:00,
2013-04-12 14:42:00,86.0,86.0,29.63,NNW,327,2.0,8.0,99,0.00,,,0.01,,2013-04-12 04:42:00,
2013-04-12 14:52:00,87.0,87.0,29.62,NW,320,4.0,10.0,99,0.00,,,0.01,,2013-04-12 04:52:00,
2013-04-12 15:02:00,85.0,85.0,29.62,NW,314,2.0,10.0,99,0.00,,,0.01,,2013-04-12 05:02:00,
2013-04-12 15:11:00,85.0,85.0,29.62,NW,314,2.0,10.0,99,0.00,,,0.01,,2013-04-12 05:11:00,
2013-04-12 15:22:00,85.0,85.0,29.62,NW,317,2.0,6.0,99,0.00,,,0.01,,2013-04-12 05:22:00,
2013-04-12 15:32:00,83.0,83.0,29.62,NW,316,1.0,6.0,99,0.00,,,0.01,,2013-04-12 05:32:00,
2013-04-12 15:42:00,83.0,83.0,29.62,NW,316,1.0,6.0,99,0.00,,,0.01,,2013-04-12 05:42:00,
2013-04-12 15:52:00,82.0,82.0,29.63,NW,306,0.0,8.0,99,0.00,,,0.01,,2013-04-12 05:52:00,
2013-04-12 16:01:00,81.0,81.0,29.63,WNW,300,2.0,6.0,99,0.00,,,0.01,,2013-04-12 06:01:00,
2013-04-12 16:12:00,81.0,81.0,29.63,WNW,300,2.0,6.0,99,0.00,,,0.01,,2013-04-12 06:12:00,
2013-04-12 16:22:00,80.0,80.0,29.63,WNW,301,2.0,4.0,99,0.00,,,0.01,,2013-04-12 06:22:00,
2013-04-12 16:31:00,80.0,80.0,29.64,NW,309,0.0,7.0,99,0.00,,,0.01,,2013-04-12 06:31:00,
2013-04-12 16:42:00,80.0,80.0,29.64,NW,309,0.0,7.0,99,0.00,,,0.01,,2013-04-12 06:42:00,
2013-04-12 16:52:00,79.0,79.0,29.65,NNW,329,2.0,7.0,99,0.00,,,0.01,,2013-04-12 06:52:00,
2013-04-12 17:01:00,79.0,79.0,29.63,WNW,302,1.0,5.0,99,0.00,,,0.01,,2013-04-12 07:01:00,
2013-04-12 17:11:00,79.0,79.0,29.63,WNW,302,1.0,5.0,99,0.00,,,0.01,,2013-04-12 07:11:00,
2013-04-12 17:22:00,79.0,79.0,29.63,WNW,302,1.0,5.0,99,0.00,,,0.01,,2013-04-12 07:22:00,
2013-04-12 17:32:00,78.0,78.0,29.63,NW,324,2.0,7.0,99,0.00,,,0.01,,2013-04-12 07:32:00,
2013-04-12 17:40:00,78.0,78.0,29.64,NW,321,2.0,4.0,99,0.00,,,0.01,,2013-04-12 07:40:00,
2013-04-12 17:42:00,78.0,78.0,29.63,NW,324,2.0,7.0,99,0.00,,,0.01,,2013-04-12 07:42:00,
2013-04-12 17:52:00,78.0,78.0,29.65,NW,317,0.0,5.0,99,0.00,,,0.01,,2013-04-12 07:52:00,
2013-04-12 18:02:00,78.0,78.0,29.64,NW,321,2.0,4.0,99,0.00,,,0.01,,2013-04-12 08:02:00,
2013-04-12 18:11:00,78.0,78.0,29.64,NW,321,2.0,4.0,99,0.00,,,0.01,,2013-04-12 08:11:00,
2013-04-12 18:22:00,78.0,78.0,29.64,NW,321,2.0,4.0,99,0.00,,,0.01,,2013-04-12 08:22:00,
2013-04-12 18:32:00,78.0,78.0,29.64,NW,321,2.0,4.0,99,0.00,,,0.01,,2013-04-12 08:32:00,
2013-04-12 18:52:00,77.0,77.0,29.66,NW,306,2.0,9.0,99,0.00,,,0.01,,2013-04-12 08:52:00,
2013-04-12 19:02:00,78.0,78.0,29.67,NW,314,2.0,10.0,99,0.00,,,0.01,,2013-04-12 09:02:00,
2013-04-12 19:12:00,78.0,78.0,29.67,NW,314,2.0,10.0,99,0.00,,,0.01,,2013-04-12 09:12:00,
2013-04-12 19:22:00,78.0,78.0,29.69,WNW,285,1.0,6.0,99,0.00,,,0.01,,2013-04-12 09:22:00,
2013-04-12 19:32:00,78.0,78.0,29.69,WNW,285,1.0,6.0,99,0.00,,,0.01,,2013-04-12 09:32:00,
2013-04-12 19:42:00,78.0,78.0,29.69,WNW,285,1.0,6.0,99,0.00,,,0.01,,2013-04-12 09:42:00,
2013-04-12 19:53:00,78.0,78.0,29.71,NW,316,0.0,6.0,99,0.00,,,0.01,,2013-04-12 09:53:00,
2013-04-12 20:02:00,78.0,78.0,29.71,NW,316,0.0,6.0,99,0.00,,,0.01,,2013-04-12 10:02:00,
2013-04-12 20:12:00,78.0,78.0,29.71,NW,316,0.0,6.0,99,0.00,,,0.01,,2013-04-12 10:12:00,
2013-04-12 20:22:00,76.0,76.0,29.72,NW,323,0.0,5.0,99,0.01,,,0.02,,2013-04-12 10:22:00,
2013-04-12 20:33:00,76.0,76.0,29.72,NW,323,0.0,5.0,99,0.01,,,0.02,,2013-04-12 10:33:00,
2013-04-12 20:42:00,76.0,76.0,29.72,NW,323,0.0,5.0,99,0.01,,,0.02,,2013-04-12 10:42:00,
2013-04-12 20:52:00,74.0,74.0,29.72,NW,324,2.0,9.0,99,0.01,,,0.01,,2013-04-12 10:52:00,
2013-04-12 21:02:00,74.0,74.0,29.72,NW,324,2.0,9.0,99,0.01,,,0.01,,2013-04-12 11:02:00,
2013-04-12 21:12:00,74.0,74.0,29.72,NW,324,2.0,9.0,99,0.01,,,0.01,,2013-04-12 11:12:00,
2013-04-12 21:22:00,74.0,74.0,29.72,NW,315,0.0,2.0,99,0.00,,,0.01,,2013-04-12 11:22:00,
2013-04-12 21:32:00,74.0,74.0,29.73,NW,319,0.0,2.0,99,0.00,,,0.01,,2013-04-12 11:32:00,
2013-04-12 21:43:00,74.0,74.0,29.73,NW,319,0.0,2.0,99,0.00,,,0.01,,2013-04-12 11:43:00,
2013-04-12 21:52:00,74.0,74.0,29.71,NW,307,1.0,4.0,99,0.00,,,0.01,,2013-04-12 11:52:00,
2013-04-12 22:02:00,75.0,75.0,29.71,NW,317,2.0,6.0,99,0.00,,,0.01,,2013-04-12 12:02:00,
2013-04-12 22:12:00,75.0,75.0,29.71,NW,317,2.0,6.0,99,0.00,,,0.01,,2013-04-12 12:12:00,
2013-04-12 22:22:00,76.0,76.0,29.71,NNW,331,2.0,8.0,99,0.00,,,0.01,,2013-04-12 12:22:00,
2013-04-12 22:32:00,76.0,76.0,29.71,NW,314,2.0,9.0,99,0.00,,,0.01,,2013-04-12 12:32:00,
2013-04-12 22:42:00,76.0,76.0,29.71,NW,314,2.0,9.0,99,0.00,,,0.01,,2013-04-12 12:42:00,
2013-04-12 22:52:00,76.0,76.0,29.72,NNW,328,1.0,8.0,99,0.00,,,0.01,,2013-04-12 12:52:00,
2013-04-12 23:02:00,76.0,76.0,29.72,NNW,330,2.0,8.0,99,0.00,,,0.01,,2013-04-12 13:02:00,
2013-04-12 23:11:00,76.0,76.0,29.72,NNW,330,2.0,8.0,99,0.00,,,0.01,,2013-04-12 13:11:00,
2013-04-12 23:20:00,74.0,74.0,29.72,NW,323,3.0,11.0,99,0.01,,,0.02,,2013-04-12 13:20:00,
2013-04-12 23:21:00,75.0,75.0,29.71,NW,318,4.0,10.0,99,0.01,,,0.02,,2013-04-12 13:21:00,
2013-04-12 23:32:00,75.0,75.0,29.71,NW,318,4.0,10.0,99,0.01,,,0.02,,2013-04-12 13:32:00,
2013-04-12 23:42:00,75.0,75.0,29.71,NW,318,4.0,10.0,99,0.01,,,0.02,,2013-04-12 13:42:00,
2013-04-12 23:53:00,74.0,74.0,29.72,NW,323,3.0,11.0,99,0.01,,,0.02,,2013-04-12 13:53:00,